地図

経路データ

SID SEASON NUMBER BASIN SUBBASIN NAME ISO_TIME NATURE LAT LON WMO_WIND WMO_PRES WMO_AGENCY TRACK_TYPE DIST2LAND LANDFALL IFLAG USA_AGENCY USA_ATCF_ID USA_LAT USA_LON USA_RECORD USA_STATUS USA_WIND USA_PRES USA_SSHS USA_R34_NE USA_R34_SE USA_R34_SW USA_R34_NW USA_R50_NE USA_R50_SE USA_R50_SW USA_R50_NW USA_R64_NE USA_R64_SE USA_R64_SW USA_R64_NW USA_POCI USA_ROCI USA_RMW USA_EYE TOKYO_LAT TOKYO_LON TOKYO_GRADE TOKYO_WIND TOKYO_PRES TOKYO_R50_DIR TOKYO_R50_LONG TOKYO_R50_SHORT TOKYO_R30_DIR TOKYO_R30_LONG TOKYO_R30_SHORT TOKYO_LAND CMA_LAT CMA_LON CMA_CAT CMA_WIND CMA_PRES HKO_LAT HKO_LON HKO_CAT HKO_WIND HKO_PRES NEWDELHI_LAT NEWDELHI_LON NEWDELHI_GRADE NEWDELHI_WIND NEWDELHI_PRES NEWDELHI_CI NEWDELHI_DP NEWDELHI_POCI REUNION_LAT REUNION_LON REUNION_TYPE REUNION_WIND REUNION_PRES REUNION_TNUM REUNION_CI REUNION_RMW REUNION_R34_NE REUNION_R34_SE REUNION_R34_SW REUNION_R34_NW REUNION_R50_NE REUNION_R50_SE REUNION_R50_SW REUNION_R50_NW REUNION_R64_NE REUNION_R64_SE REUNION_R64_SW REUNION_R64_NW BOM_LAT BOM_LON BOM_TYPE BOM_WIND BOM_PRES BOM_TNUM BOM_CI BOM_RMW BOM_R34_NE BOM_R34_SE BOM_R34_SW BOM_R34_NW BOM_R50_NE BOM_R50_SE BOM_R50_SW BOM_R50_NW BOM_R64_NE BOM_R64_SE BOM_R64_SW BOM_R64_NW BOM_ROCI BOM_POCI BOM_EYE BOM_POS_METHOD BOM_PRES_METHOD NADI_LAT NADI_LON NADI_CAT NADI_WIND NADI_PRES WELLINGTON_LAT WELLINGTON_LON WELLINGTON_WIND WELLINGTON_PRES DS824_LAT DS824_LON DS824_STAGE DS824_WIND DS824_PRES TD9636_LAT TD9636_LON TD9636_STAGE TD9636_WIND TD9636_PRES TD9635_LAT TD9635_LON TD9635_WIND TD9635_PRES TD9635_ROCI NEUMANN_LAT NEUMANN_LON NEUMANN_CLASS NEUMANN_WIND NEUMANN_PRES MLC_LAT MLC_LON MLC_CLASS MLC_WIND MLC_PRES USA_GUST BOM_GUST BOM_GUST_PER REUNION_GUST REUNION_GUST_PER USA_SEAHGT USA_SEARAD_NE USA_SEARAD_SE USA_SEARAD_SW USA_SEARAD_NW STORM_SPEED STORM_DIR
1984210N16249 1984 51 EP MM HERNAN 1984-07-27 12:00:00 TS 16.0000 -110.600 25 hurdat_epa main 697 697 O_________O___ hurdat_epa EP081984 16.0000 -110.600 TD 25 -1 16.0000 -110.600 1 25 9 299
1984210N16249 1984 51 EP MM HERNAN 1984-07-27 15:00:00 TS 16.2074 -110.997 main 718 718 P_________P___ EP081984 16.2226 -110.987 TD 27 -1 16.1616 -111.028 1 27 9 296
1984210N16249 1984 51 EP MM HERNAN 1984-07-27 18:00:00 TS 16.3796 -111.414 30 hurdat_epa main 741 737 O_________P___ hurdat_epa EP081984 16.4000 -111.400 TD 30 -1 16.3183 -111.454 1 30 9 289
1984210N16249 1984 51 EP MM HERNAN 1984-07-27 21:00:00 TS 16.4971 -111.857 main 742 738 P_________P___ EP081984 16.5075 -111.850 TD 32 -1 16.4658 -111.879 1 32 9 285
1984210N16249 1984 51 EP MM HERNAN 1984-07-28 00:00:00 TS 16.6000 -112.300 35 hurdat_epa main 744 741 O_________O___ hurdat_epa EP081984 16.6000 -112.300 TS 35 0 16.6000 -112.300 2 35 9 287
1984210N16249 1984 51 EP MM HERNAN 1984-07-28 03:00:00 TS 16.7475 -112.704 main 748 738 P_________P___ EP081984 16.7573 -112.700 TS 35 0 16.7181 -112.717 2 35 8 290
1984210N16249 1984 51 EP MM HERNAN 1984-07-28 06:00:00 TS 16.8805 -113.109 35 hurdat_epa main 745 745 O_________P___ hurdat_epa EP081984 16.9000 -113.100 TS 35 0 16.8220 -113.135 2 35 8 284
1984210N16249 1984 51 EP MM HERNAN 1984-07-28 09:00:00 TS 16.9468 -113.542 main 764 759 P_________P___ EP081984 16.9574 -113.535 TS 35 0 16.9149 -113.561 2 35 9 278
1984210N16249 1984 51 EP MM HERNAN 1984-07-28 12:00:00 TS 17.0000 -114.000 35 hurdat_epa main 781 781 O_________O___ hurdat_epa EP081984 17.0000 -114.000 TS 35 0 17.0000 -114.000 2 35 9 279
1984210N16249 1984 51 EP MM HERNAN 1984-07-28 15:00:00 TS 17.0965 -114.492 main 801 801 P_________P___ EP081984 17.1000 -114.500 TS 35 0 17.0862 -114.469 2 35 10 281
1984210N16249 1984 51 EP MM HERNAN 1984-07-28 18:00:00 TS 17.1912 -114.988 35 hurdat_epa main 823 823 O_________P___ hurdat_epa EP081984 17.2000 -115.000 TS 35 0 17.1650 -114.950 2 35 9 280
1984210N16249 1984 51 EP MM HERNAN 1984-07-28 21:00:00 TS 17.2521 -115.457 main 849 849 P_________P___ EP081984 17.2574 -115.465 TS 35 0 17.2362 -115.431 2 35 9 277
1984210N16249 1984 51 EP MM HERNAN 1984-07-29 00:00:00 TS 17.3000 -115.900 35 hurdat_epa main 878 878 O_________O___ hurdat_epa EP081984 17.3000 -115.900 TS 35 0 17.3000 -115.900 2 35 8 277
1984210N16249 1984 51 EP MM HERNAN 1984-07-29 03:00:00 TS 17.3536 -116.311 main 900 900 P_________P___ EP081984 17.3498 -116.300 TS 35 0 17.3649 -116.343 2 37 8 278
1984210N16249 1984 51 EP MM HERNAN 1984-07-29 06:00:00 TS 17.4055 -116.718 35 hurdat_epa main 931 931 O_________P___ hurdat_epa EP081984 17.4000 -116.700 TS 35 0 17.4220 -116.772 2 40 8 277
1984210N16249 1984 51 EP MM HERNAN 1984-07-29 09:00:00 TS 17.4602 -117.160 main 962 962 P_________P___ EP081984 17.4575 -117.150 TS 40 0 17.4681 -117.190 2 42 8 276
1984210N16249 1984 51 EP MM HERNAN 1984-07-29 12:00:00 TS 17.5000 -117.600 45 hurdat_epa main 986 986 O_________O___ hurdat_epa EP081984 17.5000 -117.600 TS 45 0 17.5000 -117.600 2 45 8 273
1984210N16249 1984 51 EP MM HERNAN 1984-07-29 15:00:00 TS 17.5091 -118.009 main 1010 1010 P_________P___ EP081984 17.5074 -118.008 TS 40 0 17.5141 -118.011 2 42 8 270
1984210N16249 1984 51 EP MM HERNAN 1984-07-29 18:00:00 TS 17.5037 -118.404 35 hurdat_epa main 1036 1036 O_________P___ hurdat_epa EP081984 17.5000 -118.400 TS 35 0 17.5147 -118.415 2 40 8 270
1984210N16249 1984 51 EP MM HERNAN 1984-07-29 21:00:00 TS 17.5075 -118.803 main 1063 1063 P_________P___ EP081984 17.5074 -118.800 TS 35 0 17.5079 -118.811 2 37 8 270
1984210N16249 1984 51 EP MM HERNAN 1984-07-30 00:00:00 TS 17.5000 -119.200 35 hurdat_epa main 1090 1090 O_________O___ hurdat_epa EP081984 17.5000 -119.200 TS 35 0 17.5000 -119.200 2 35 8 266
1984210N16249 1984 51 EP MM HERNAN 1984-07-30 03:00:00 TS 17.4558 -119.601 main 1118 1118 P_________P___ EP081984 17.4425 -119.608 TS 35 0 17.4957 -119.582 2 33 8 264
1984210N16249 1984 51 EP MM HERNAN 1984-07-30 06:00:00 TS 17.4230 -119.989 35 hurdat_epa main 1156 1156 O_________P___ hurdat_epa EP081984 17.4000 -120.000 TS 35 0 17.4921 -119.958 2 32 7 270
1984210N16249 1984 51 EP MM HERNAN 1984-07-30 09:00:00 TS 17.4549 -120.345 main 1170 1170 P_________P___ EP081984 17.4424 -120.350 TS 32 -1 17.4925 -120.329 2 31 7 276
1984210N16249 1984 51 EP MM HERNAN 1984-07-30 12:00:00 TS 17.5000 -120.700 30 hurdat_epa main 1200 1200 O_________O___ hurdat_epa EP081984 17.5000 -120.700 TD 30 -1 17.5000 -120.700 1 30 7 274
1984210N16249 1984 51 EP MM HERNAN 1984-07-30 15:00:00 TS 17.5075 -121.095 main 1231 1231 P_________P___ EP081984 17.5000 -121.100 TD 30 -1 17.5298 -121.079 1 30 8 271
1984210N16249 1984 51 EP MM HERNAN 1984-07-30 18:00:00 TS 17.5162 -121.489 30 hurdat_epa main 1262 1262 O_________P___ hurdat_epa EP081984 17.5000 -121.500 TD 30 -1 17.5648 -121.457 1 30 7 275
1984210N16249 1984 51 EP MM HERNAN 1984-07-30 21:00:00 TS 17.5661 -121.851 main 1287 1287 P_________P___ EP081984 17.5574 -121.857 TD 30 -1 17.5924 -121.832 1 30 7 277
1984210N16249 1984 51 EP MM HERNAN 1984-07-31 00:00:00 TS 17.6000 -122.200 30 hurdat_epa main 1311 1311 O_________O___ hurdat_epa EP081984 17.6000 -122.200 TD 30 -1 17.6000 -122.200 1 30 7 270
1984210N16249 1984 51 EP MM HERNAN 1984-07-31 03:00:00 TS 17.5675 -122.551 main 1344 1344 P_________P___ EP081984 17.5649 -122.550 TD 30 -1 17.5753 -122.553 1 28 7 262
1984210N16249 1984 51 EP MM HERNAN 1984-07-31 06:00:00 TS 17.5074 -122.900 30 hurdat_epa main 1376 1376 O_________P___ hurdat_epa EP081984 17.5000 -122.900 TD 30 -1 17.5296 -122.900 1 27 7 260
1984210N16249 1984 51 EP MM HERNAN 1984-07-31 09:00:00 TS 17.4548 -123.255 main 1409 1409 P_________P___ EP081984 17.4500 -123.257 TD 27 -1 17.4691 -123.247 1 26 7 261
1984210N16249 1984 51 EP MM HERNAN 1984-07-31 12:00:00 TS 17.4000 -123.600 25 hurdat_epa main 1441 1441 O_________O___ hurdat_epa EP081984 17.4000 -123.600 TD 25 -1 17.4000 -123.600 1 25 6 260
1984210N16249 1984 51 EP MM HERNAN 1984-07-31 15:00:00 TS 17.3499 -123.905 main 1474 1474 P_________P___ EP081984 17.3573 -123.885 TD 25 -1 17.3276 -123.964 1 25 6 260
1984210N16249 1984 51 EP MM HERNAN 1984-07-31 18:00:00 TS 17.2883 -124.234 25 hurdat_epa main 1495 1495 O_________P___ hurdat_epa EP081984 17.3000 -124.200 TD 25 -1 17.2532 -124.338 1 25 7 258
1984210N16249 1984 51 EP MM HERNAN 1984-07-31 21:00:00 TS 17.2020 -124.643 main 1531 1531 P_________P___ EP081984 17.2103 -124.618 TD 25 -1 17.1772 -124.717 1 25 8 257
1984210N16249 1984 51 EP MM HERNAN 1984-08-01 00:00:00 TS 17.1000 -125.100 25 hurdat_epa main 1573 O_________O___ hurdat_epa EP081984 17.1000 -125.100 TD 25 -1 17.1000 -125.100 1 25 9 257

IBTrACS Databaseについて

本データベースは、米国NOAAが公開する1842年以降の世界の熱帯低気圧のベストトラックデータアーカイブInternational Best Track Archive for Climate Stewardship (IBTrACS)を、ウェブで閲覧しやすい形式に変換したものです。

最終更新日:2021-10-08